Time;durP1;ratioP1;P1;durP2;ratioP2;P2;SDS_P1;SDS_P2;PMS_P1;PMS_P2;Temp;Humidity;BMP_temperature;BMP_pressure;BME280_temperature;BME280_humidity;BME280_pressure;Samples;Min_cycle;Max_cycle;Signal;HPM_P1;HPM_P2
2023/06/03 00:00:24;;;;;;;9.52;3.97;;;;;;;;;;4989180;28;20048;-78
2023/06/03 00:02:52;;;;;;;8.13;3.65;;;;;;;;;;4965356;28;20080;-78
2023/06/03 00:05:20;;;;;;;10.40;4.57;;;;;;;;;;4968524;28;20538;-78
2023/06/03 00:07:45;;;;;;;8.15;4.13;;;;;;;;;;4990644;28;20062;-78
2023/06/03 00:10:11;;;;;;;6.38;4.07;;;;;;;;;;4971303;28;20061;-78
2023/06/03 00:12:36;;;;;;;8.60;4.05;;;;;;;;;;4972845;28;20030;-78
2023/06/03 00:15:02;;;;;;;8.85;4.10;;;;;;;;;;4972294;28;20490;-78
2023/06/03 00:17:27;;;;;;;6.78;4.15;;;;;;;;;;4971232;28;20026;-78
2023/06/03 00:19:54;;;;;;;5.82;3.92;;;;;;;;;;4988731;28;20033;-78
2023/06/03 00:22:21;;;;;;;6.97;3.70;;;;;;;;;;4998763;28;20026;-78
2023/06/03 00:24:47;;;;;;;7.55;3.53;;;;;;;;;;4991816;28;20050;-78
2023/06/03 00:27:13;;;;;;;7.97;4.43;;;;;;;;;;4977726;28;20038;-78
2023/06/03 00:29:38;;;;;;;5.78;3.75;;;;;;;;;;4972898;28;20034;-78
2023/06/03 00:32:04;;;;;;;6.97;3.70;;;;;;;;;;4971098;28;20026;-78
2023/06/03 00:34:29;;;;;;;6.50;3.58;;;;;;;;;;4973990;28;20036;-78
2023/06/03 00:36:55;;;;;;;7.68;4.53;;;;;;;;;;4975362;28;20030;-78
2023/06/03 00:39:21;;;;;;;8.05;3.80;;;;;;;;;;4976143;28;20029;-78
2023/06/03 00:41:47;;;;;;;8.55;3.92;;;;;;;;;;4979370;28;20088;-78
2023/06/03 00:44:12;;;;;;;8.32;3.92;;;;;;;;;;4987036;28;20018;-78
2023/06/03 00:46:38;;;;;;;6.65;3.75;;;;;;;;;;4967867;28;20026;-78
2023/06/03 00:49:03;;;;;;;7.07;3.85;;;;;;;;;;4974541;28;20372;-78
2023/06/03 00:51:31;;;;;;;7.07;3.42;;;;;;;;;;4976017;28;20030;-78
2023/06/03 00:53:56;;;;;;;6.55;3.47;;;;;;;;;;4985805;28;20447;-78
2023/06/03 00:56:22;;;;;;;9.23;4.07;;;;;;;;;;4981276;28;20045;-78
2023/06/03 00:58:49;;;;;;;5.28;3.20;;;;;;;;;;4998644;28;20109;-78
2023/06/03 01:01:14;;;;;;;6.57;3.72;;;;;;;;;;4992399;28;21445;-78
2023/06/03 01:03:42;;;;;;;6.53;3.63;;;;;;;;;;4991723;28;20014;-78
2023/06/03 01:06:08;;;;;;;7.50;3.90;;;;;;;;;;4976213;28;20037;-78
2023/06/03 01:08:48;;;;;;;6.63;3.55;;;;;;;;;;4997274;28;20026;-78
2023/06/03 01:11:21;;;;;;;8.75;3.47;;;;;;;;;;4991007;28;20047;-78
2023/06/03 01:13:58;;;;;;;6.82;3.22;;;;;;;;;;4976594;28;20022;-78
2023/06/03 01:16:25;;;;;;;6.38;3.65;;;;;;;;;;4990994;28;20034;-78
2023/06/03 01:18:52;;;;;;;6.57;3.40;;;;;;;;;;4977420;28;20400;-78
2023/06/03 01:21:18;;;;;;;8.05;3.60;;;;;;;;;;4996934;28;20080;-78
2023/06/03 01:23:45;;;;;;;6.53;3.55;;;;;;;;;;4965971;28;20030;-78
2023/06/03 01:26:11;;;;;;;6.00;3.95;;;;;;;;;;4989589;28;20031;-78
2023/06/03 01:28:38;;;;;;;6.35;3.80;;;;;;;;;;4975877;28;20030;-78
2023/06/03 01:31:04;;;;;;;6.10;3.80;;;;;;;;;;4975368;28;20383;-78
2023/06/03 01:33:31;;;;;;;5.93;3.58;;;;;;;;;;4992570;28;20023;-78
2023/06/03 01:35:59;;;;;;;6.35;3.67;;;;;;;;;;4986861;28;20030;-78
2023/06/03 01:38:25;;;;;;;7.25;3.50;;;;;;;;;;4991413;28;20041;-78
2023/06/03 01:40:52;;;;;;;5.82;3.55;;;;;;;;;;4972292;28;20513;-78
2023/06/03 01:43:18;;;;;;;6.50;3.60;;;;;;;;;;4970727;28;20426;-78
2023/06/03 01:45:44;;;;;;;6.47;3.80;;;;;;;;;;4982821;28;20033;-77
2023/06/03 01:48:09;;;;;;;7.55;3.97;;;;;;;;;;4975091;28;20037;-78
2023/06/03 01:50:35;;;;;;;7.28;3.42;;;;;;;;;;4979796;28;20034;-78
2023/06/03 01:53:00;;;;;;;6.03;3.50;;;;;;;;;;4990688;28;20033;-78
2023/06/03 01:55:25;;;;;;;5.68;3.40;;;;;;;;;;4996124;28;20505;-78
2023/06/03 01:57:52;;;;;;;6.95;3.72;;;;;;;;;;4972841;28;20050;-78
2023/06/03 02:00:17;;;;;;;7.72;3.80;;;;;;;;;;4989585;28;20084;-78
2023/06/03 02:02:43;;;;;;;6.35;3.40;;;;;;;;;;4973936;28;20061;-78
2023/06/03 02:05:09;;;;;;;6.50;3.70;;;;;;;;;;4991738;28;20463;-78
2023/06/03 02:07:34;;;;;;;9.27;3.50;;;;;;;;;;4974109;28;20041;-78
2023/06/03 02:10:00;;;;;;;7.50;3.40;;;;;;;;;;4988366;28;20022;-78
2023/06/03 02:12:26;;;;;;;7.55;3.50;;;;;;;;;;4973084;28;20442;-78
2023/06/03 02:14:56;;;;;;;6.78;3.65;;;;;;;;;;4979902;28;20025;-78
2023/06/03 02:17:26;;;;;;;6.50;3.80;;;;;;;;;;4983867;28;20022;-78
2023/06/03 02:19:55;;;;;;;6.95;3.63;;;;;;;;;;4987920;28;20026;-78
2023/06/03 02:22:20;;;;;;;6.07;3.50;;;;;;;;;;4977588;28;20065;-78
2023/06/03 02:24:46;;;;;;;9.43;3.50;;;;;;;;;;4974968;28;20026;-78
2023/06/03 02:27:16;;;;;;;5.68;3.38;;;;;;;;;;4992764;28;20121;-78
2023/06/03 02:29:45;;;;;;;6.28;3.30;;;;;;;;;;4994225;28;20109;-78
2023/06/03 02:32:10;;;;;;;5.65;3.22;;;;;;;;;;4980548;28;20034;-78
2023/06/03 02:34:35;;;;;;;6.07;3.47;;;;;;;;;;4994677;28;20022;-78
2023/06/03 02:37:01;;;;;;;5.72;3.33;;;;;;;;;;4973386;28;20030;-78
2023/06/03 02:39:27;;;;;;;6.93;3.33;;;;;;;;;;4990613;28;20461;-78
2023/06/03 02:41:52;;;;;;;4.93;3.00;;;;;;;;;;4992979;28;20045;-78
2023/06/03 02:44:18;;;;;;;5.93;3.50;;;;;;;;;;4987448;28;20030;-78
2023/06/03 02:46:44;;;;;;;4.85;2.88;;;;;;;;;;4991599;28;20054;-78
2023/06/03 02:49:09;;;;;;;6.25;3.20;;;;;;;;;;4985670;28;20044;-78
2023/06/03 02:51:36;;;;;;;4.93;3.42;;;;;;;;;;4992023;28;20030;-78
2023/06/03 02:54:02;;;;;;;5.38;3.35;;;;;;;;;;4994934;28;20026;-78
2023/06/03 02:56:27;;;;;;;6.53;2.97;;;;;;;;;;4993308;28;20108;-78
2023/06/03 02:58:54;;;;;;;7.70;3.75;;;;;;;;;;4990974;28;20034;-78
2023/06/03 03:01:20;;;;;;;6.32;3.50;;;;;;;;;;4999782;28;20489;-78
2023/06/03 03:03:46;;;;;;;5.88;3.33;;;;;;;;;;4992113;28;20110;-78
2023/06/03 03:06:15;;;;;;;6.38;2.92;;;;;;;;;;4976176;28;20030;-78
2023/06/03 03:08:41;;;;;;;7.07;3.22;;;;;;;;;;4991961;28;20026;-78
2023/06/03 03:11:09;;;;;;;6.22;3.28;;;;;;;;;;4990112;28;20022;-78
2023/06/03 03:13:37;;;;;;;4.82;2.95;;;;;;;;;;4982334;28;20566;-78
2023/06/03 03:16:03;;;;;;;7.88;3.58;;;;;;;;;;4979297;28;20022;-76
2023/06/03 03:18:28;;;;;;;6.15;3.30;;;;;;;;;;4994258;28;20098;-76
2023/06/03 03:20:53;;;;;;;6.22;3.10;;;;;;;;;;4991309;28;20042;-76
2023/06/03 03:23:19;;;;;;;5.47;2.70;;;;;;;;;;4992168;28;20053;-76
2023/06/03 03:25:45;;;;;;;6.13;3.15;;;;;;;;;;4994969;28;20030;-78
2023/06/03 03:28:11;;;;;;;5.10;3.10;;;;;;;;;;4976843;28;20038;-78
2023/06/03 03:30:37;;;;;;;6.20;2.95;;;;;;;;;;4982297;28;20031;-78
2023/06/03 03:33:04;;;;;;;4.85;2.78;;;;;;;;;;4974368;28;20070;-78
2023/06/03 03:35:29;;;;;;;4.32;2.67;;;;;;;;;;4981640;28;20089;-78
2023/06/03 03:38:02;;;;;;;5.40;2.88;;;;;;;;;;4971238;28;20042;-78
2023/06/03 03:40:27;;;;;;;6.78;3.10;;;;;;;;;;4974440;28;20076;-78
2023/06/03 03:42:54;;;;;;;5.47;2.70;;;;;;;;;;4992003;28;20057;-78
2023/06/03 03:45:22;;;;;;;5.88;3.03;;;;;;;;;;4968862;28;20549;-78
2023/06/03 03:47:49;;;;;;;5.68;3.03;;;;;;;;;;4990191;28;20030;-78
2023/06/03 03:50:37;;;;;;;7.25;2.80;;;;;;;;;;4991199;28;20033;-78
2023/06/03 03:53:04;;;;;;;4.47;2.90;;;;;;;;;;4999114;28;20025;-78
2023/06/03 03:55:30;;;;;;;6.20;3.00;;;;;;;;;;4999930;28;20466;-78
2023/06/03 03:57:56;;;;;;;5.50;2.65;;;;;;;;;;4994327;28;20120;-78
2023/06/03 04:00:22;;;;;;;4.68;2.67;;;;;;;;;;4980642;28;20037;-78
2023/06/03 04:02:53;;;;;;;6.90;2.75;;;;;;;;;;4977697;28;20026;-78
2023/06/03 04:05:22;;;;;;;5.72;2.65;;;;;;;;;;4970235;28;20022;-78
2023/06/03 04:07:48;;;;;;;5.13;2.53;;;;;;;;;;4978146;28;20038;-78
2023/06/03 04:10:14;;;;;;;5.15;2.58;;;;;;;;;;4991773;28;20033;-78
2023/06/03 04:12:39;;;;;;;4.65;2.17;;;;;;;;;;4994672;28;20116;-78
2023/06/03 04:15:06;;;;;;;4.40;2.60;;;;;;;;;;4990720;28;20066;-78
2023/06/03 04:17:36;;;;;;;4.88;2.15;;;;;;;;;;4976773;28;20522;-78
2023/06/03 04:20:01;;;;;;;4.20;2.40;;;;;;;;;;4977435;28;20026;-78
2023/06/03 04:22:27;;;;;;;5.53;2.53;;;;;;;;;;4979169;28;20052;-78
2023/06/03 04:24:57;;;;;;;5.07;2.40;;;;;;;;;;5002257;28;20106;-78
2023/06/03 04:27:23;;;;;;;5.15;2.30;;;;;;;;;;4988415;28;20034;-78
2023/06/03 04:29:49;;;;;;;5.35;2.30;;;;;;;;;;4993809;28;20053;-78
2023/06/03 04:32:15;;;;;;;4.15;2.20;;;;;;;;;;4997691;28;20030;-78
2023/06/03 04:34:54;;;;;;;4.90;2.63;;;;;;;;;;4995675;28;20386;-78
2023/06/03 04:37:20;;;;;;;4.85;2.30;;;;;;;;;;4993535;28;20037;-78
2023/06/03 04:39:46;;;;;;;4.10;2.08;;;;;;;;;;4992777;28;20030;-78
2023/06/03 04:42:12;;;;;;;4.63;2.30;;;;;;;;;;4997172;28;20387;-78
2023/06/03 04:44:41;;;;;;;4.07;2.28;;;;;;;;;;4998913;28;20014;-78
2023/06/03 04:47:10;;;;;;;3.97;1.80;;;;;;;;;;4989708;28;20406;-78
2023/06/03 04:49:39;;;;;;;4.65;2.22;;;;;;;;;;4981907;28;20490;-78
2023/06/03 04:52:09;;;;;;;4.40;2.25;;;;;;;;;;4974490;28;20128;-78
2023/06/03 04:54:40;;;;;;;4.60;2.15;;;;;;;;;;4993119;28;20114;-78
2023/06/03 04:57:06;;;;;;;4.93;2.03;;;;;;;;;;4975718;28;20030;-78
2023/06/03 04:59:31;;;;;;;3.22;1.98;;;;;;;;;;4977109;28;20438;-78
2023/06/03 05:01:56;;;;;;;4.22;2.10;;;;;;;;;;4977024;28;20109;-78
2023/06/03 05:04:22;;;;;;;5.80;2.05;;;;;;;;;;4994781;28;20026;-78
2023/06/03 05:06:48;;;;;;;3.47;1.98;;;;;;;;;;4977822;28;20033;-78
2023/06/03 05:09:14;;;;;;;6.05;1.92;;;;;;;;;;4993680;28;20958;-78
2023/06/03 05:11:40;;;;;;;4.40;2.28;;;;;;;;;;4996861;28;20030;-78
2023/06/03 05:14:06;;;;;;;3.83;2.25;;;;;;;;;;4991387;28;20046;-78
2023/06/03 05:16:32;;;;;;;4.70;2.13;;;;;;;;;;4973604;28;20081;-78
2023/06/03 05:18:57;;;;;;;3.83;2.00;;;;;;;;;;4989845;28;20432;-78
2023/06/03 05:21:23;;;;;;;4.50;1.92;;;;;;;;;;4973331;28;20031;-78
2023/06/03 05:23:48;;;;;;;3.70;2.00;;;;;;;;;;4987970;28;20064;-78
2023/06/03 05:26:13;;;;;;;2.90;1.48;;;;;;;;;;4974298;28;20501;-78
2023/06/03 05:28:39;;;;;;;3.65;1.77;;;;;;;;;;4988635;28;20025;-78
2023/06/03 05:31:04;;;;;;;3.53;2.00;;;;;;;;;;5006979;28;20041;-78
2023/06/03 05:33:32;;;;;;;5.70;2.20;;;;;;;;;;5003556;28;20053;-78
2023/06/03 05:35:58;;;;;;;3.92;2.00;;;;;;;;;;4985810;28;20497;-78
2023/06/03 05:38:24;;;;;;;4.82;2.10;;;;;;;;;;4975616;28;20034;-78
2023/06/03 05:40:51;;;;;;;3.33;1.70;;;;;;;;;;4989434;28;20467;-78
2023/06/03 05:43:16;;;;;;;4.80;1.73;;;;;;;;;;4980744;28;20022;-78
2023/06/03 05:45:42;;;;;;;10.13;2.08;;;;;;;;;;4974386;28;20030;-78
2023/06/03 05:48:08;;;;;;;3.85;1.95;;;;;;;;;;4978189;28;20057;-78
2023/06/03 05:50:39;;;;;;;4.40;1.80;;;;;;;;;;4969847;28;20018;-78
2023/06/03 05:53:05;;;;;;;3.28;1.70;;;;;;;;;;4969643;28;20034;-78
2023/06/03 05:55:31;;;;;;;2.92;1.90;;;;;;;;;;4987602;28;20073;-78
2023/06/03 05:57:57;;;;;;;4.70;1.88;;;;;;;;;;4992238;28;20030;-78
2023/06/03 06:00:22;;;;;;;5.30;2.30;;;;;;;;;;4973570;28;20482;-78
2023/06/03 06:02:48;;;;;;;4.03;2.15;;;;;;;;;;4973970;28;20032;-78
2023/06/03 06:05:14;;;;;;;5.80;2.13;;;;;;;;;;4975133;28;20469;-78
2023/06/03 06:07:39;;;;;;;3.33;1.70;;;;;;;;;;4991063;28;20029;-78
2023/06/03 06:10:05;;;;;;;2.90;1.67;;;;;;;;;;4992761;28;20456;-78
2023/06/03 06:12:30;;;;;;;4.43;1.90;;;;;;;;;;4983275;28;20152;-78
2023/06/03 06:14:56;;;;;;;6.65;2.67;;;;;;;;;;4989759;28;20035;-78
2023/06/03 06:17:21;;;;;;;6.40;2.03;;;;;;;;;;4986679;28;20086;-78
2023/06/03 06:19:47;;;;;;;4.63;2.13;;;;;;;;;;4990696;28;20041;-78
2023/06/03 06:22:12;;;;;;;5.00;2.10;;;;;;;;;;4987660;28;20092;-78
2023/06/03 06:24:38;;;;;;;3.88;2.00;;;;;;;;;;4993871;28;20018;-78
2023/06/03 06:27:04;;;;;;;4.50;1.90;;;;;;;;;;4992889;28;20038;-78
2023/06/03 06:29:30;;;;;;;4.20;2.13;;;;;;;;;;4972515;28;20030;-78
2023/06/03 06:31:55;;;;;;;3.95;1.85;;;;;;;;;;4990879;28;21077;-78
2023/06/03 06:34:22;;;;;;;4.72;1.85;;;;;;;;;;4982895;28;20033;-78
2023/06/03 06:36:52;;;;;;;3.95;1.77;;;;;;;;;;4998704;28;20038;-78
2023/06/03 06:39:44;;;;;;;3.92;1.90;;;;;;;;;;4965910;28;20033;-78
2023/06/03 06:42:12;;;;;;;3.20;1.80;;;;;;;;;;4988674;28;20035;-78
2023/06/03 06:44:47;;;;;;;4.18;1.85;;;;;;;;;;4991848;28;20081;-78
2023/06/03 06:47:20;;;;;;;3.25;1.65;;;;;;;;;;4989036;28;20057;-78
2023/06/03 06:49:46;;;;;;;4.22;1.90;;;;;;;;;;4971227;28;20031;-78
2023/06/03 06:52:12;;;;;;;2.60;1.50;;;;;;;;;;4970499;28;20042;-78
2023/06/03 06:54:37;;;;;;;4.45;1.60;;;;;;;;;;4979580;28;20076;-78
2023/06/03 06:57:05;;;;;;;4.50;1.75;;;;;;;;;;5001744;28;20029;-79
2023/06/03 06:59:30;;;;;;;2.80;1.48;;;;;;;;;;4970936;28;20026;-78
2023/06/03 07:01:56;;;;;;;5.50;1.85;;;;;;;;;;4993430;28;20406;-78
2023/06/03 07:04:21;;;;;;;3.65;1.58;;;;;;;;;;4972077;28;20459;-78
2023/06/03 07:06:46;;;;;;;3.58;1.60;;;;;;;;;;4994164;28;20026;-78
2023/06/03 07:09:12;;;;;;;3.00;1.63;;;;;;;;;;4987675;28;20109;-78
2023/06/03 07:11:45;;;;;;;2.80;1.60;;;;;;;;;;4972615;28;20053;-78
2023/06/03 07:14:11;;;;;;;4.70;1.50;;;;;;;;;;4994575;28;20029;-78
2023/06/03 07:16:37;;;;;;;5.78;1.63;;;;;;;;;;4985081;28;20039;-78
2023/06/03 07:19:04;;;;;;;3.30;1.80;;;;;;;;;;4971229;28;20041;-78
2023/06/03 07:21:30;;;;;;;5.32;2.25;;;;;;;;;;4969833;28;20034;-78
2023/06/03 07:23:56;;;;;;;4.57;1.88;;;;;;;;;;4969907;28;20056;-78
2023/06/03 07:26:25;;;;;;;3.58;1.50;;;;;;;;;;4990321;28;20032;-78
2023/06/03 07:28:51;;;;;;;4.55;1.70;;;;;;;;;;4988453;28;20570;-78
2023/06/03 07:31:16;;;;;;;3.78;1.80;;;;;;;;;;4976184;28;20125;-78
2023/06/03 07:33:48;;;;;;;3.88;1.80;;;;;;;;;;4967776;28;20029;-78
2023/06/03 07:36:14;;;;;;;3.60;1.67;;;;;;;;;;4971570;28;20038;-78
2023/06/03 07:38:55;;;;;;;3.55;1.70;;;;;;;;;;4970915;28;20490;-78
2023/06/03 07:41:43;;;;;;;3.28;1.60;;;;;;;;;;4967606;28;20475;-78
2023/06/03 07:44:14;;;;;;;7.78;1.85;;;;;;;;;;4969597;28;20029;-78
2023/06/03 07:46:45;;;;;;;2.65;1.40;;;;;;;;;;4969057;28;20038;-78
2023/06/03 07:49:16;;;;;;;3.90;1.70;;;;;;;;;;4970662;28;20144;-78
2023/06/03 07:51:47;;;;;;;4.13;1.40;;;;;;;;;;4990564;28;20030;-78
2023/06/03 07:54:13;;;;;;;2.40;1.40;;;;;;;;;;4966683;28;20034;-78
2023/06/03 07:56:39;;;;;;;3.85;1.60;;;;;;;;;;4968768;28;20455;-78
2023/06/03 07:59:08;;;;;;;2.80;1.58;;;;;;;;;;4973852;28;20030;-78
2023/06/03 08:01:35;;;;;;;4.10;1.70;;;;;;;;;;4987387;28;20030;-78
2023/06/03 08:04:03;;;;;;;3.72;1.10;;;;;;;;;;4964295;28;20028;-78
2023/06/03 08:06:29;;;;;;;3.00;1.30;;;;;;;;;;4980024;28;20038;-78
2023/06/03 08:08:58;;;;;;;2.58;1.40;;;;;;;;;;4962970;28;20038;-78
2023/06/03 08:11:24;;;;;;;4.28;1.08;;;;;;;;;;4961810;28;20117;-78
2023/06/03 08:13:49;;;;;;;2.58;1.40;;;;;;;;;;4971550;28;20141;-78
2023/06/03 08:16:18;;;;;;;2.78;1.10;;;;;;;;;;4968972;28;20435;-78
2023/06/03 08:18:50;;;;;;;11.77;1.40;;;;;;;;;;4962652;28;20034;-78
2023/06/03 08:21:17;;;;;;;2.92;1.25;;;;;;;;;;4980578;28;20037;-78
2023/06/03 08:23:42;;;;;;;3.08;1.40;;;;;;;;;;4986901;28;20085;-78
2023/06/03 08:26:09;;;;;;;2.00;1.15;;;;;;;;;;4966722;28;20030;-78
2023/06/03 08:28:38;;;;;;;4.63;1.30;;;;;;;;;;4985788;28;20026;-78
2023/06/03 08:31:04;;;;;;;3.10;1.13;;;;;;;;;;4972207;28;20037;-78
2023/06/03 08:33:30;;;;;;;1.92;1.17;;;;;;;;;;4970079;28;20431;-78
2023/06/03 08:35:56;;;;;;;4.72;1.25;;;;;;;;;;4974704;28;20037;-78
2023/06/03 08:38:21;;;;;;;2.13;1.00;;;;;;;;;;4987366;28;20042;-78
2023/06/03 08:40:48;;;;;;;4.07;1.40;;;;;;;;;;4974431;28;20057;-78
2023/06/03 08:43:14;;;;;;;2.80;1.13;;;;;;;;;;4990399;28;20447;-78
2023/06/03 08:46:01;;;;;;;3.75;1.20;;;;;;;;;;4989267;28;20037;-78
2023/06/03 08:48:35;;;;;;;4.90;1.40;;;;;;;;;;4987928;28;20049;-78
2023/06/03 08:51:04;;;;;;;3.55;1.20;;;;;;;;;;4992162;28;20491;-78
2023/06/03 08:53:56;;;;;;;2.08;1.02;;;;;;;;;;4968360;28;20035;-78
2023/06/03 08:56:25;;;;;;;2.13;0.95;;;;;;;;;;4966259;28;21058;-78
2023/06/03 08:59:01;;;;;;;7.55;1.20;;;;;;;;;;4966263;28;20030;-77
2023/06/03 09:01:32;;;;;;;2.75;0.90;;;;;;;;;;4969767;28;20030;-78
2023/06/03 09:04:00;;;;;;;2.80;0.93;;;;;;;;;;4986836;28;20054;-78
2023/06/03 09:06:26;;;;;;;2.90;1.13;;;;;;;;;;4970375;28;20641;-79
2023/06/03 09:08:52;;;;;;;1.75;0.98;;;;;;;;;;4991863;28;20109;-78
2023/06/03 09:11:19;;;;;;;4.97;1.00;;;;;;;;;;4990579;28;20022;-78
2023/06/03 09:13:45;;;;;;;1.80;0.80;;;;;;;;;;4974926;28;20076;-78
2023/06/03 09:16:11;;;;;;;3.75;1.00;;;;;;;;;;4992291;28;20030;-78
2023/06/03 09:18:36;;;;;;;2.45;0.90;;;;;;;;;;4998288;28;20483;-78
2023/06/03 09:21:02;;;;;;;3.00;0.90;;;;;;;;;;4985157;28;20030;-78
2023/06/03 09:23:28;;;;;;;2.33;0.95;;;;;;;;;;4991400;28;20030;-78
2023/06/03 09:25:54;;;;;;;2.13;1.02;;;;;;;;;;4973428;28;20475;-78
2023/06/03 09:28:19;;;;;;;2.50;1.05;;;;;;;;;;4978260;28;20026;-78
2023/06/03 09:30:45;;;;;;;1.85;0.90;;;;;;;;;;4970253;28;20463;-78
2023/06/03 09:33:10;;;;;;;3.55;1.00;;;;;;;;;;4985897;28;22022;-78
2023/06/03 09:35:36;;;;;;;2.65;0.98;;;;;;;;;;4965287;28;20033;-78
2023/06/03 09:38:06;;;;;;;5.07;1.00;;;;;;;;;;4981486;28;20113;-78
2023/06/03 09:40:33;;;;;;;1.95;0.80;;;;;;;;;;4978401;28;20402;-78
2023/06/03 09:42:59;;;;;;;1.58;0.80;;;;;;;;;;4997718;28;20164;-78
2023/06/03 09:45:32;;;;;;;3.20;0.90;;;;;;;;;;4980180;28;20057;-79
2023/06/03 09:47:59;;;;;;;1.33;0.77;;;;;;;;;;4973331;28;20104;-78
2023/06/03 09:50:28;;;;;;;1.25;0.65;;;;;;;;;;4976401;28;20391;-78
2023/06/03 09:52:54;;;;;;;3.42;0.80;;;;;;;;;;4988911;28;20391;-78
2023/06/03 09:55:22;;;;;;;1.92;0.70;;;;;;;;;;4978574;28;20490;-78
2023/06/03 09:58:09;;;;;;;2.15;0.93;;;;;;;;;;4975012;28;20069;-78
2023/06/03 10:00:51;;;;;;;0.88;0.52;;;;;;;;;;4976904;28;20399;-78
2023/06/03 10:03:21;;;;;;;0.98;0.65;;;;;;;;;;4979025;28;20022;-78
2023/06/03 10:05:46;;;;;;;1.90;0.57;;;;;;;;;;4996701;28;20073;-78
2023/06/03 10:08:11;;;;;;;3.13;0.90;;;;;;;;;;4995444;28;20103;-78
2023/06/03 10:10:55;;;;;;;7.00;0.70;;;;;;;;;;4977920;28;20080;-78
2023/06/03 10:13:21;;;;;;;3.33;0.82;;;;;;;;;;4974134;28;20022;-78
2023/06/03 10:15:48;;;;;;;2.05;0.70;;;;;;;;;;4995932;28;20084;-78
2023/06/03 10:18:14;;;;;;;2.00;0.60;;;;;;;;;;4979742;28;20113;-78
2023/06/03 10:20:40;;;;;;;1.33;0.50;;;;;;;;;;4977481;28;20050;-78
2023/06/03 10:23:07;;;;;;;1.77;0.60;;;;;;;;;;5000569;28;20034;-78
2023/06/03 10:25:43;;;;;;;2.55;0.60;;;;;;;;;;4978404;28;20025;-78
2023/06/03 10:28:10;;;;;;;1.20;0.68;;;;;;;;;;4998432;28;20130;-78
2023/06/03 10:30:36;;;;;;;1.67;0.70;;;;;;;;;;4992414;28;20510;-78
2023/06/03 10:33:05;;;;;;;4.32;0.70;;;;;;;;;;4976039;28;20027;-78
2023/06/03 10:35:32;;;;;;;1.58;0.65;;;;;;;;;;4994688;28;20034;-78
2023/06/03 10:38:03;;;;;;;2.15;0.60;;;;;;;;;;4981648;28;20025;-78
2023/06/03 10:40:29;;;;;;;1.60;0.50;;;;;;;;;;4996367;28;20038;-78
2023/06/03 10:42:55;;;;;;;1.30;0.52;;;;;;;;;;4978143;28;20023;-78
2023/06/03 10:45:22;;;;;;;0.70;0.50;;;;;;;;;;4978989;28;20032;-78
2023/06/03 10:47:49;;;;;;;2.38;0.70;;;;;;;;;;5001558;28;20478;-78
2023/06/03 10:50:29;;;;;;;1.70;0.63;;;;;;;;;;5000337;28;20030;-78
2023/06/03 10:53:13;;;;;;;2.08;0.70;;;;;;;;;;4980353;28;20408;-79
2023/06/03 10:56:02;;;;;;;0.70;0.45;;;;;;;;;;4973383;28;20105;-78
2023/06/03 10:58:28;;;;;;;0.60;0.45;;;;;;;;;;4982011;28;20493;-78
2023/06/03 11:01:04;;;;;;;1.88;0.80;;;;;;;;;;4996563;28;20034;-78
2023/06/03 11:03:31;;;;;;;2.30;0.68;;;;;;;;;;4975654;28;20029;-78
2023/06/03 11:06:21;;;;;;;2.65;0.60;;;;;;;;;;4998649;28;20018;-78
2023/06/03 11:09:09;;;;;;;2.10;0.70;;;;;;;;;;4994569;28;20399;-79
2023/06/03 11:11:41;;;;;;;1.00;0.50;;;;;;;;;;4998779;28;20022;-79
2023/06/03 11:14:11;;;;;;;1.35;0.60;;;;;;;;;;5002466;28;20026;-79
2023/06/03 11:16:58;;;;;;;1.60;0.60;;;;;;;;;;4977958;28;20479;-78
2023/06/03 11:19:37;;;;;;;1.27;0.70;;;;;;;;;;4995362;28;20030;-79
2023/06/03 11:22:07;;;;;;;2.33;0.60;;;;;;;;;;4997445;28;20042;-78
2023/06/03 11:24:41;;;;;;;0.98;0.50;;;;;;;;;;4973335;28;20023;-78
2023/06/03 11:27:13;;;;;;;1.42;0.50;;;;;;;;;;4996607;28;20034;-78
2023/06/03 11:29:53;;;;;;;1.95;0.70;;;;;;;;;;4995752;28;20018;-78
2023/06/03 11:32:19;;;;;;;4.57;0.75;;;;;;;;;;4995629;28;20026;-78
2023/06/03 11:34:48;;;;;;;0.73;0.52;;;;;;;;;;4996236;28;20387;-78
2023/06/03 11:37:17;;;;;;;4.68;1.02;;;;;;;;;;4978682;28;20026;-78
2023/06/03 11:40:06;;;;;;;1.52;0.60;;;;;;;;;;4992329;28;20033;-78
2023/06/03 11:42:51;;;;;;;1.30;0.50;;;;;;;;;;4997358;28;20034;-79
2023/06/03 11:45:17;;;;;;;1.40;0.70;;;;;;;;;;4997083;28;20584;-78
2023/06/03 11:48:07;;;;;;;2.72;0.70;;;;;;;;;;4980957;28;20120;-79
2023/06/03 11:50:53;;;;;;;0.77;0.40;;;;;;;;;;5001245;28;20026;-78
2023/06/03 11:53:33;;;;;;;0.70;0.50;;;;;;;;;;5000426;28;20022;-78
2023/06/03 11:56:09;;;;;;;1.08;0.52;;;;;;;;;;4990133;28;20023;-78
2023/06/03 11:58:36;;;;;;;0.73;0.40;;;;;;;;;;4993264;28;20101;-78
2023/06/03 12:01:07;;;;;;;2.20;0.60;;;;;;;;;;4978468;28;20030;-78
2023/06/03 12:03:33;;;;;;;1.58;0.55;;;;;;;;;;4993679;28;20675;-78
2023/06/03 12:06:01;;;;;;;1.80;0.65;;;;;;;;;;4994661;28;20045;-78
2023/06/03 12:08:41;;;;;;;1.77;0.50;;;;;;;;;;4997902;28;20026;-78
2023/06/03 12:11:07;;;;;;;1.73;0.70;;;;;;;;;;5002496;28;20038;-78
2023/06/03 12:13:41;;;;;;;1.55;0.60;;;;;;;;;;5001825;28;20061;-78
2023/06/03 12:16:06;;;;;;;2.35;0.60;;;;;;;;;;4983058;28;20045;-79
2023/06/03 12:18:32;;;;;;;2.00;0.65;;;;;;;;;;4989591;28;20028;-78
2023/06/03 12:21:18;;;;;;;1.77;1.15;;;;;;;;;;4984226;28;20032;-78
2023/06/03 12:23:45;;;;;;;1.63;0.50;;;;;;;;;;5005113;28;20077;-78
2023/06/03 12:26:10;;;;;;;1.23;0.60;;;;;;;;;;4987441;28;20038;-78
2023/06/03 12:28:35;;;;;;;3.70;0.80;;;;;;;;;;5006870;28;20030;-78
2023/06/03 12:31:11;;;;;;;3.35;0.80;;;;;;;;;;5006969;28;20030;-78
2023/06/03 12:33:45;;;;;;;1.45;0.60;;;;;;;;;;4988793;28;20027;-78
2023/06/03 12:36:11;;;;;;;1.80;0.60;;;;;;;;;;4992482;28;20026;-78
2023/06/03 12:38:56;;;;;;;2.70;0.55;;;;;;;;;;4983793;28;20506;-78
2023/06/03 12:41:22;;;;;;;1.30;0.60;;;;;;;;;;5008006;28;20087;-78
2023/06/03 12:43:57;;;;;;;1.13;0.60;;;;;;;;;;4999980;28;20101;-79
2023/06/03 12:46:22;;;;;;;2.45;0.65;;;;;;;;;;5005600;28;20037;-78
2023/06/03 12:48:47;;;;;;;2.83;0.60;;;;;;;;;;4983838;28;20034;-78
2023/06/03 12:51:29;;;;;;;2.35;0.80;;;;;;;;;;5002612;28;20033;-78
2023/06/03 12:53:56;;;;;;;1.25;0.60;;;;;;;;;;4995865;28;20022;-78
2023/06/03 12:56:26;;;;;;;1.95;0.60;;;;;;;;;;5001976;28;20034;-78
2023/06/03 12:58:53;;;;;;;1.52;0.60;;;;;;;;;;5003315;28;20077;-78
2023/06/03 13:01:22;;;;;;;1.63;0.60;;;;;;;;;;5003559;28;20041;-78
2023/06/03 13:03:47;;;;;;;1.48;0.70;;;;;;;;;;5013534;28;20085;-78
2023/06/03 13:06:14;;;;;;;1.35;0.60;;;;;;;;;;4993587;28;20052;-78
2023/06/03 13:08:40;;;;;;;3.10;0.60;;;;;;;;;;4990584;28;20395;-78
2023/06/03 13:11:05;;;;;;;2.08;0.68;;;;;;;;;;4990386;28;20361;-78
2023/06/03 13:13:33;;;;;;;1.75;0.60;;;;;;;;;;5001432;28;20034;-78
2023/06/03 13:15:59;;;;;;;0.93;0.50;;;;;;;;;;4982436;28;20026;-78
2023/06/03 13:18:25;;;;;;;1.85;0.60;;;;;;;;;;4983445;28;20486;-78
2023/06/03 13:20:50;;;;;;;1.05;0.50;;;;;;;;;;4983781;28;20042;-78
2023/06/03 13:23:15;;;;;;;2.72;0.75;;;;;;;;;;4983373;28;20540;-78
2023/06/03 13:25:41;;;;;;;0.95;0.60;;;;;;;;;;4982818;28;20066;-78
2023/06/03 13:28:06;;;;;;;1.85;0.68;;;;;;;;;;5008273;28;20387;-78
2023/06/03 13:30:32;;;;;;;1.02;0.50;;;;;;;;;;5005500;28;20030;-78
2023/06/03 13:32:57;;;;;;;1.30;0.50;;;;;;;;;;4984462;28;20033;-78
2023/06/03 13:35:23;;;;;;;1.02;0.52;;;;;;;;;;4979093;28;20022;-78
2023/06/03 13:37:48;;;;;;;3.83;0.65;;;;;;;;;;4983167;28;20525;-78
2023/06/03 13:40:14;;;;;;;3.35;0.65;;;;;;;;;;5000260;28;20080;-78
2023/06/03 13:42:40;;;;;;;1.17;0.63;;;;;;;;;;4986400;28;20026;-78
2023/06/03 13:45:06;;;;;;;1.30;0.50;;;;;;;;;;5001341;28;20073;-78
2023/06/03 13:47:33;;;;;;;1.60;0.50;;;;;;;;;;5000021;28;20030;-78
2023/06/03 13:49:58;;;;;;;1.00;0.52;;;;;;;;;;5001156;28;20030;-78
2023/06/03 13:52:24;;;;;;;1.45;0.60;;;;;;;;;;4998631;28;20751;-78
2023/06/03 13:54:50;;;;;;;1.58;0.50;;;;;;;;;;4973020;28;20029;-78
2023/06/03 13:57:16;;;;;;;0.93;0.60;;;;;;;;;;4966726;28;21931;-78
2023/06/03 13:59:42;;;;;;;1.50;0.73;;;;;;;;;;4965181;28;20157;-77
2023/06/03 14:02:12;;;;;;;1.77;0.63;;;;;;;;;;4992226;28;20177;-78
2023/06/03 14:04:37;;;;;;;1.98;0.50;;;;;;;;;;4990387;28;20034;-78
2023/06/03 14:07:03;;;;;;;1.35;0.63;;;;;;;;;;4988897;28;20395;-77
2023/06/03 14:09:28;;;;;;;1.02;0.50;;;;;;;;;;4970368;28;20538;-77
2023/06/03 14:11:53;;;;;;;2.53;0.80;;;;;;;;;;4995035;28;20037;-77
2023/06/03 14:14:19;;;;;;;0.90;0.57;;;;;;;;;;4985348;28;20978;-78
2023/06/03 14:16:45;;;;;;;2.05;0.65;;;;;;;;;;4983881;28;20014;-77
2023/06/03 14:19:11;;;;;;;2.85;0.60;;;;;;;;;;4985988;28;20403;-78
2023/06/03 14:21:36;;;;;;;2.08;0.75;;;;;;;;;;4985805;28;20026;-78
2023/06/03 14:24:01;;;;;;;1.55;0.60;;;;;;;;;;4982671;28;20022;-77
2023/06/03 14:26:27;;;;;;;0.95;0.50;;;;;;;;;;4979560;28;20163;-75
2023/06/03 14:28:52;;;;;;;1.15;0.52;;;;;;;;;;4967499;28;20025;-76
2023/06/03 14:31:17;;;;;;;2.75;0.50;;;;;;;;;;4986189;28;20058;-75
2023/06/03 14:33:43;;;;;;;1.45;0.60;;;;;;;;;;4985360;28;20370;-75
2023/06/03 14:36:09;;;;;;;3.90;0.90;;;;;;;;;;4968973;28;20022;-75
2023/06/03 14:38:35;;;;;;;2.35;0.60;;;;;;;;;;4990197;28;20026;-76
2023/06/03 14:41:06;;;;;;;0.93;0.60;;;;;;;;;;4970658;28;20032;-76
2023/06/03 14:43:32;;;;;;;1.85;0.60;;;;;;;;;;4969743;28;20398;-76
2023/06/03 14:45:57;;;;;;;1.20;0.50;;;;;;;;;;4984165;28;20059;-75
2023/06/03 14:48:24;;;;;;;1.08;0.57;;;;;;;;;;4970640;28;20064;-76